Time;durP1;ratioP1;P1;durP2;ratioP2;P2;SDS_P1;SDS_P2;PMS_P1;PMS_P2;Temp;Humidity;BMP_temperature;BMP_pressure;BME280_temperature;BME280_humidity;BME280_pressure;Samples;Min_cycle;Max_cycle;Signal;HPM_P1;HPM_P2
2022/04/17 00:00:18;;;;;;;6.03;3.80;;;6.50;99.90;;;;;;5105188;28;20048;-86
2022/04/17 00:02:44;;;;;;;6.13;3.35;;;6.50;99.90;;;;;;5105287;28;20115;-87
2022/04/17 00:05:10;;;;;;;7.57;3.70;;;6.70;99.90;;;;;;5104477;28;20079;-83
2022/04/17 00:07:36;;;;;;;4.75;3.13;;;6.40;99.90;;;;;;5104918;28;20052;-83
2022/04/17 00:10:04;;;;;;;6.47;3.42;;;6.40;99.90;;;;;;5086901;28;20040;-87
2022/04/17 00:12:29;;;;;;;5.15;3.58;;;6.40;99.90;;;;;;5085102;28;20050;-83
2022/04/17 00:14:55;;;;;;;6.13;3.90;;;6.40;99.90;;;;;;5103303;28;20115;-85
2022/04/17 00:17:22;;;;;;;6.82;3.58;;;6.40;99.90;;;;;;5102413;28;20518;-83
2022/04/17 00:19:48;;;;;;;7.47;3.90;;;6.40;99.90;;;;;;5103755;28;20088;-83
2022/04/17 00:22:14;;;;;;;7.22;3.83;;;6.30;99.90;;;;;;5102480;28;20072;-83
2022/04/17 00:24:40;;;;;;;5.95;3.40;;;6.20;99.90;;;;;;5104729;28;20043;-83
2022/04/17 00:27:06;;;;;;;5.88;3.60;;;6.20;99.90;;;;;;5107746;28;20040;-83
2022/04/17 00:29:32;;;;;;;6.60;4.05;;;6.30;99.90;;;;;;5088067;28;20130;-83
2022/04/17 00:31:57;;;;;;;6.25;3.95;;;6.20;99.90;;;;;;5106433;28;20544;-83
2022/04/17 00:34:24;;;;;;;7.43;4.05;;;6.10;99.90;;;;;;5106478;28;20036;-87
2022/04/17 00:36:50;;;;;;;6.35;3.67;;;6.00;99.90;;;;;;5103138;28;20044;-86
2022/04/17 00:39:15;;;;;;;6.35;3.90;;;6.00;99.90;;;;;;5102509;28;20431;-84
2022/04/17 00:41:41;;;;;;;7.85;4.40;;;5.90;99.90;;;;;;5085932;28;20055;-86
2022/04/17 00:44:14;;;;;;;7.90;4.07;;;5.90;99.90;;;;;;5103793;28;20112;-83
2022/04/17 00:46:40;;;;;;;8.93;4.18;;;5.90;99.90;;;;;;5103789;28;20047;-86
2022/04/17 00:49:07;;;;;;;6.93;4.20;;;5.90;99.90;;;;;;5104302;28;20476;-83
2022/04/17 00:51:34;;;;;;;7.20;4.35;;;5.90;99.90;;;;;;5103074;28;20475;-83
2022/04/17 00:54:02;;;;;;;7.75;4.15;;;6.10;99.90;;;;;;5085618;28;20055;-83
2022/04/17 00:56:29;;;;;;;7.25;4.13;;;5.80;99.90;;;;;;5101733;28;20075;-85
2022/04/17 00:58:55;;;;;;;7.35;4.20;;;5.80;99.90;;;;;;5103794;28;20437;-83
2022/04/17 01:01:21;;;;;;;7.10;4.40;;;5.90;99.90;;;;;;5085370;28;20044;-83
2022/04/17 01:03:51;;;;;;;7.97;4.78;;;5.80;99.90;;;;;;5103980;28;20058;-83
2022/04/17 01:06:17;;;;;;;7.65;4.55;;;5.80;99.90;;;;;;5084757;28;20050;-87
2022/04/17 01:08:43;;;;;;;7.88;4.53;;;5.80;99.90;;;;;;5086567;28;20036;-87
2022/04/17 01:11:10;;;;;;;8.75;4.78;;;5.80;99.90;;;;;;5103851;28;20082;-83
2022/04/17 01:13:39;;;;;;;8.77;5.03;;;5.70;99.90;;;;;;5102599;28;20052;-86
2022/04/17 01:16:06;;;;;;;7.25;4.63;;;5.70;99.90;;;;;;5102852;28;20122;-87
2022/04/17 01:19:04;;;;;;;9.07;4.88;;;5.70;99.90;;;;;;5102165;28;20044;-86
2022/04/17 01:21:34;;;;;;;9.20;4.65;;;5.60;99.90;;;;;;5085548;28;20099;-84
2022/04/17 01:26:56;;;;;;;8.23;5.00;;;5.60;99.90;;;;;;5101083;28;20107;-83
2022/04/17 01:29:31;;;;;;;9.77;4.88;;;5.60;99.90;;;;;;5084641;28;20508;-86
2022/04/17 01:31:58;;;;;;;7.40;4.72;;;5.60;99.90;;;;;;5103118;28;20048;-87
2022/04/17 01:34:24;;;;;;;8.20;4.90;;;5.60;99.90;;;;;;5103702;28;20043;-83
2022/04/17 01:36:50;;;;;;;10.50;4.93;;;5.40;99.90;;;;;;5102556;28;20040;-84
2022/04/17 01:39:18;;;;;;;8.55;5.32;;;5.50;99.90;;;;;;5084948;28;20079;-83
2022/04/17 01:41:44;;;;;;;9.80;5.22;;;5.80;99.90;;;;;;5084367;28;20113;-85
2022/04/17 01:44:10;;;;;;;8.40;5.30;;;5.80;99.90;;;;;;5102047;28;20504;-83
2022/04/17 01:46:36;;;;;;;7.65;5.35;;;5.40;99.90;;;;;;5103664;28;20051;-83
2022/04/17 01:49:03;;;;;;;8.73;5.20;;;5.70;99.90;;;;;;5084585;28;20071;-83
2022/04/17 01:51:34;;;;;;;9.15;5.30;;;5.40;99.90;;;;;;5100952;28;20118;-84
2022/04/17 01:54:02;;;;;;;9.63;5.28;;;5.40;99.90;;;;;;5101326;28;20052;-83
2022/04/17 01:56:28;;;;;;;9.52;5.55;;;5.50;99.90;;;;;;5100821;28;20079;-86
2022/04/17 01:58:54;;;;;;;9.27;4.95;;;5.40;99.90;;;;;;5101167;28;20044;-83
2022/04/17 02:01:19;;;;;;;9.75;5.18;;;5.40;99.90;;;;;;5100934;28;20130;-83
2022/04/17 02:03:45;;;;;;;9.82;5.65;;;5.30;99.90;;;;;;5102260;28;20104;-85
2022/04/17 02:06:11;;;;;;;9.23;5.70;;;5.30;99.90;;;;;;5083642;28;20520;-85
2022/04/17 02:08:36;;;;;;;8.38;5.68;;;5.30;99.90;;;;;;5084315;28;20047;-83
2022/04/17 02:11:02;;;;;;;8.60;5.80;;;5.30;99.90;;;;;;5100868;28;20064;-85
2022/04/17 02:13:29;;;;;;;8.43;5.30;;;5.20;99.90;;;;;;5103663;28;20489;-85
2022/04/17 02:15:55;;;;;;;9.07;5.55;;;5.30;99.90;;;;;;5101001;28;20040;-83
2022/04/17 02:18:21;;;;;;;9.75;5.70;;;5.20;99.90;;;;;;5102835;28;20040;-85
2022/04/17 02:20:48;;;;;;;10.77;5.70;;;5.30;99.90;;;;;;5099772;28;20036;-84
2022/04/17 02:23:14;;;;;;;8.30;5.45;;;5.40;99.90;;;;;;5083985;28;20118;-86
2022/04/17 02:25:40;;;;;;;9.45;5.57;;;5.70;99.90;;;;;;5099885;28;20056;-83
2022/04/17 02:28:07;;;;;;;9.30;5.03;;;5.40;99.90;;;;;;5101286;28;20032;-82
2022/04/17 02:30:33;;;;;;;10.38;5.60;;;5.80;99.90;;;;;;5100037;28;20072;-87
2022/04/17 02:32:58;;;;;;;9.50;5.65;;;5.40;99.90;;;;;;5100598;28;20051;-84
2022/04/17 02:35:24;;;;;;;9.68;5.75;;;5.10;99.90;;;;;;5100739;28;20043;-83
2022/04/17 02:37:50;;;;;;;10.77;5.72;;;5.10;99.90;;;;;;5102251;28;20132;-84
2022/04/17 02:40:15;;;;;;;9.95;5.90;;;5.10;99.90;;;;;;5104282;28;20123;-86
2022/04/17 02:42:42;;;;;;;9.15;6.03;;;5.30;99.90;;;;;;5105811;28;20052;-86
2022/04/17 02:45:08;;;;;;;9.32;5.53;;;5.10;99.90;;;;;;5106004;28;20042;-86
2022/04/17 02:47:43;;;;;;;9.27;5.88;;;5.10;99.90;;;;;;5087452;28;20131;-83
2022/04/17 02:50:13;;;;;;;8.37;5.40;;;5.50;99.90;;;;;;5087675;28;20506;-83
2022/04/17 02:52:39;;;;;;;10.23;5.55;;;5.00;99.90;;;;;;5104745;28;20099;-83
2022/04/17 02:55:06;;;;;;;10.35;6.20;;;5.00;99.90;;;;;;5104322;28;20083;-83
2022/04/17 02:57:32;;;;;;;10.05;5.68;;;5.00;99.90;;;;;;5104094;28;20036;-85
2022/04/17 02:59:58;;;;;;;8.98;5.68;;;4.90;99.90;;;;;;5087376;28;20044;-83
2022/04/17 03:07:53;;;;;;;9.32;5.90;;;5.10;99.90;;;;;;5103926;28;20044;-85
2022/04/17 03:10:19;;;;;;;9.95;5.93;;;4.80;99.90;;;;;;5104895;28;20087;-83
2022/04/17 03:12:45;;;;;;;9.23;5.50;;;4.80;99.90;;;;;;5086471;28;20055;-83
2022/04/17 03:15:10;;;;;;;8.48;5.50;;;4.80;99.90;;;;;;5086277;28;20044;-87
2022/04/17 03:17:37;;;;;;;10.55;6.22;;;4.80;99.90;;;;;;5104619;28;20055;-83
2022/04/17 03:20:03;;;;;;;9.68;5.93;;;4.80;99.90;;;;;;5104946;28;20042;-84
2022/04/17 03:22:29;;;;;;;11.63;6.22;;;4.70;99.90;;;;;;5105371;28;20186;-84
2022/04/17 03:24:55;;;;;;;10.88;6.22;;;4.70;99.90;;;;;;5106411;28;20044;-86
2022/04/17 03:27:21;;;;;;;7.78;5.05;;;4.70;99.90;;;;;;5088279;28;20048;-86
2022/04/17 03:29:47;;;;;;;10.10;5.85;;;4.70;99.90;;;;;;5105146;28;20040;-85
2022/04/17 03:32:13;;;;;;;10.18;6.13;;;4.70;99.90;;;;;;5106372;28;20070;-83
2022/04/17 03:34:38;;;;;;;8.48;5.43;;;4.70;99.90;;;;;;5088580;28;20414;-86
2022/04/17 03:37:05;;;;;;;10.68;6.03;;;4.70;99.90;;;;;;5105242;28;20060;-86
2022/04/17 03:39:35;;;;;;;10.40;5.85;;;4.70;99.90;;;;;;5105593;28;20071;-83
2022/04/17 03:42:01;;;;;;;11.18;6.20;;;4.70;99.90;;;;;;5086849;28;20051;-86
2022/04/17 03:44:27;;;;;;;8.70;5.97;;;4.60;99.90;;;;;;5104733;28;20047;-85
2022/04/17 03:46:55;;;;;;;9.68;5.88;;;5.10;99.90;;;;;;5101757;28;20048;-83
2022/04/17 03:49:21;;;;;;;11.18;6.00;;;4.60;99.90;;;;;;5102019;28;20058;-83
2022/04/17 03:51:47;;;;;;;10.68;6.43;;;4.60;99.90;;;;;;5083774;28;20048;-82
2022/04/17 03:54:12;;;;;;;9.88;6.07;;;4.60;99.90;;;;;;5102988;28;20090;-83
2022/04/17 03:56:38;;;;;;;11.15;6.05;;;4.60;99.90;;;;;;5108062;28;20067;-83
2022/04/17 03:59:05;;;;;;;9.13;6.18;;;4.60;99.90;;;;;;5108391;28;20048;-83
2022/04/17 04:01:30;;;;;;;10.98;6.15;;;4.50;99.90;;;;;;5106392;28;20055;-86
2022/04/17 04:03:56;;;;;;;10.05;6.20;;;4.50;99.90;;;;;;5102588;28;20036;-87
2022/04/17 04:06:22;;;;;;;9.65;6.30;;;4.50;99.90;;;;;;5083467;28;20043;-87
2022/04/17 04:08:51;;;;;;;9.68;6.05;;;4.50;99.90;;;;;;5083632;28;20082;-83
2022/04/17 04:11:20;;;;;;;12.60;6.65;;;4.50;99.90;;;;;;5084263;28;20178;-85
2022/04/17 04:13:46;;;;;;;10.23;6.40;;;4.50;99.90;;;;;;5102017;28;20052;-83
2022/04/17 04:16:11;;;;;;;11.23;6.38;;;4.40;99.90;;;;;;5100340;28;20051;-83
2022/04/17 04:18:37;;;;;;;9.95;6.10;;;4.40;99.90;;;;;;5100640;28;20044;-84
2022/04/17 04:21:03;;;;;;;11.15;6.30;;;4.30;99.90;;;;;;5102127;28;20123;-86
2022/04/17 04:23:34;;;;;;;11.43;6.70;;;4.30;99.90;;;;;;5102637;28;20047;-83
2022/04/17 04:26:03;;;;;;;11.90;6.70;;;4.30;99.90;;;;;;5100881;28;20081;-83
2022/04/17 04:28:38;;;;;;;11.68;6.85;;;4.30;99.90;;;;;;5105295;28;20068;-83
2022/04/17 04:31:09;;;;;;;11.27;6.88;;;4.30;99.90;;;;;;5102535;28;20028;-83
2022/04/17 04:33:37;;;;;;;10.35;6.82;;;4.30;99.90;;;;;;5119880;28;20047;-82
2022/04/17 04:36:05;;;;;;;10.80;6.90;;;4.20;99.90;;;;;;5103101;28;20032;-82
2022/04/17 04:38:32;;;;;;;12.57;7.32;;;4.20;99.90;;;;;;5115989;28;20044;-83
2022/04/17 04:40:59;;;;;;;11.35;6.38;;;4.20;99.90;;;;;;5103996;28;20048;-83
2022/04/17 04:43:25;;;;;;;13.10;7.25;;;4.20;99.90;;;;;;5106587;28;20102;-83
2022/04/17 04:46:09;;;;;;;11.68;6.75;;;4.20;99.90;;;;;;5104338;28;20487;-83
2022/04/17 04:51:25;;;;;;;12.23;7.18;;;4.20;99.90;;;;;;5108266;28;20044;-83
2022/04/17 04:53:52;;;;;;;11.00;7.10;;;4.20;99.90;;;;;;5108315;28;20040;-86
2022/04/17 04:56:19;;;;;;;10.80;6.80;;;4.10;99.90;;;;;;5090371;28;20475;-83
2022/04/17 04:58:45;;;;;;;10.68;6.93;;;4.10;99.90;;;;;;5106725;28;20169;-84
2022/04/17 05:01:12;;;;;;;14.73;7.25;;;4.10;99.90;;;;;;5104930;28;20040;-87
2022/04/17 05:03:38;;;;;;;11.15;7.15;;;4.10;99.90;;;;;;5099077;28;20040;-83
2022/04/17 05:06:04;;;;;;;12.18;6.88;;;4.10;99.90;;;;;;5099704;28;20395;-85
2022/04/17 05:08:29;;;;;;;11.18;7.00;;;4.10;99.90;;;;;;5100762;28;20083;-85
2022/04/17 05:10:55;;;;;;;10.50;6.82;;;4.10;99.90;;;;;;5100115;28;20067;-86
2022/04/17 05:13:21;;;;;;;10.35;6.40;;;4.10;99.90;;;;;;5099754;28;20044;-86
2022/04/17 05:15:47;;;;;;;10.32;6.68;;;4.10;99.90;;;;;;5100247;28;20039;-83
2022/04/17 05:18:13;;;;;;;12.02;7.53;;;4.10;99.90;;;;;;5098215;28;20051;-86
2022/04/17 05:20:39;;;;;;;10.27;6.55;;;4.20;99.90;;;;;;5098652;28;20048;-83
2022/04/17 05:23:17;;;;;;;11.15;6.78;;;4.20;99.90;;;;;;5102795;28;20047;-83
2022/04/17 05:25:44;;;;;;;11.82;6.82;;;4.20;99.90;;;;;;5097542;28;20165;-83
2022/04/17 05:28:10;;;;;;;11.68;6.97;;;4.20;99.90;;;;;;5098974;28;20051;-83
2022/04/17 05:30:36;;;;;;;11.60;7.30;;;4.30;99.90;;;;;;5097815;28;20048;-83
2022/04/17 05:33:01;;;;;;;11.00;7.13;;;4.30;99.90;;;;;;5098529;28;20047;-83
2022/04/17 05:35:27;;;;;;;10.93;7.18;;;4.40;99.90;;;;;;5096698;28;20036;-86
2022/04/17 05:37:53;;;;;;;10.68;6.72;;;4.40;99.90;;;;;;5101823;28;20444;-83
2022/04/17 05:40:18;;;;;;;10.07;6.45;;;4.50;99.90;;;;;;5082460;28;20048;-83
2022/04/17 05:42:44;;;;;;;13.18;6.60;;;4.60;99.90;;;;;;5081579;28;20044;-82
2022/04/17 05:45:10;;;;;;;12.00;7.18;;;4.60;99.90;;;;;;5099165;28;20042;-83
2022/04/17 05:47:36;;;;;;;11.90;7.10;;;4.70;99.90;;;;;;5096974;28;20075;-83
2022/04/17 05:50:03;;;;;;;10.50;6.75;;;4.80;99.90;;;;;;5107810;28;20058;-83
2022/04/17 05:52:29;;;;;;;11.30;6.53;;;4.90;99.90;;;;;;5100114;28;20048;-83
2022/04/17 05:54:56;;;;;;;10.32;6.93;;;5.40;99.90;;;;;;5098950;28;20047;-85
2022/04/17 05:57:21;;;;;;;12.60;7.40;;;5.00;99.90;;;;;;5097202;28;20119;-84
2022/04/17 05:59:47;;;;;;;10.75;6.93;;;5.10;99.90;;;;;;5096567;28;20079;-84
2022/04/17 06:02:14;;;;;;;11.73;7.22;;;5.20;99.90;;;;;;5080083;28;20445;-83
2022/04/17 06:04:39;;;;;;;11.40;7.43;;;5.20;99.90;;;;;;5098520;28;20039;-83
2022/04/17 06:07:05;;;;;;;12.13;6.78;;;5.30;99.90;;;;;;5080059;28;20062;-83
2022/04/17 06:09:31;;;;;;;10.63;6.80;;;5.40;99.90;;;;;;5097342;28;20062;-83
2022/04/17 06:11:56;;;;;;;11.77;7.35;;;5.40;99.90;;;;;;5095803;28;20048;-83
2022/04/17 06:14:22;;;;;;;10.98;7.30;;;5.40;99.90;;;;;;5099631;28;20044;-87
2022/04/17 06:16:47;;;;;;;11.50;7.68;;;5.60;99.90;;;;;;5101279;28;20040;-83
2022/04/17 06:19:14;;;;;;;10.73;7.13;;;5.70;99.90;;;;;;5089512;28;20376;-83
2022/04/17 06:21:40;;;;;;;13.70;7.82;;;6.20;99.90;;;;;;5104549;28;20491;-83
2022/04/17 06:24:06;;;;;;;11.38;7.07;;;5.90;99.90;;;;;;5098898;28;20097;-83
2022/04/17 06:26:33;;;;;;;12.50;7.75;;;5.90;99.90;;;;;;5098464;28;20049;-83
2022/04/17 06:29:03;;;;;;;12.45;7.40;;;6.00;99.90;;;;;;5099657;28;20044;-86
2022/04/17 06:31:30;;;;;;;12.55;7.28;;;6.10;99.90;;;;;;5082860;28;20043;-84
2022/04/17 06:33:55;;;;;;;11.95;7.43;;;6.20;99.90;;;;;;5099968;28;20051;-84
2022/04/17 06:36:21;;;;;;;12.57;7.82;;;6.30;99.90;;;;;;5099691;28;20131;-83
2022/04/17 06:38:46;;;;;;;10.95;7.38;;;6.40;99.90;;;;;;5099189;28;20073;-83
2022/04/17 06:41:12;;;;;;;13.95;7.25;;;6.50;99.90;;;;;;5100443;28;20056;-87
2022/04/17 06:43:38;;;;;;;11.90;6.75;;;6.60;99.90;;;;;;5102642;28;20056;-84
2022/04/17 06:46:03;;;;;;;11.75;7.30;;;6.70;99.90;;;;;;5100860;28;20510;-86
2022/04/17 06:48:29;;;;;;;10.02;6.95;;;7.00;99.90;;;;;;5099493;28;20055;-86
2022/04/17 06:50:55;;;;;;;10.25;7.15;;;6.90;99.90;;;;;;5099291;28;20048;-83
2022/04/17 06:53:21;;;;;;;12.98;7.47;;;7.00;99.90;;;;;;5081658;28;20048;-83
2022/04/17 06:55:50;;;;;;;10.98;7.38;;;7.10;99.90;;;;;;5101180;28;20036;-83
2022/04/17 06:58:17;;;;;;;11.32;7.30;;;7.10;99.90;;;;;;5099500;28;20071;-83
2022/04/17 07:00:43;;;;;;;13.35;7.18;;;7.30;99.90;;;;;;5099016;28;20080;-87
2022/04/17 07:03:08;;;;;;;11.07;6.90;;;7.40;99.90;;;;;;5100019;28;20094;-83
2022/04/17 07:05:34;;;;;;;12.40;7.20;;;7.50;99.90;;;;;;5098777;28;20467;-83
2022/04/17 07:08:03;;;;;;;11.75;7.45;;;7.60;99.90;;;;;;5099812;28;20048;-83
2022/04/17 07:10:30;;;;;;;10.52;7.00;;;7.70;99.90;;;;;;5098780;28;20483;-83
2022/04/17 07:12:56;;;;;;;10.52;7.20;;;7.90;99.90;;;;;;5097618;28;20044;-83
2022/04/17 07:15:25;;;;;;;9.57;6.88;;;7.90;99.90;;;;;;5098098;28;20448;-83
2022/04/17 07:17:53;;;;;;;10.35;6.22;;;8.00;99.90;;;;;;5098898;28;20043;-83
2022/04/17 07:20:19;;;;;;;11.25;7.22;;;8.20;99.90;;;;;;5099819;28;20040;-83
2022/04/17 07:22:45;;;;;;;12.07;7.40;;;8.20;99.90;;;;;;5081787;28;20051;-83
2022/04/17 07:25:12;;;;;;;11.20;7.68;;;8.40;99.90;;;;;;5096638;28;20040;-84
2022/04/17 07:27:40;;;;;;;9.93;6.53;;;8.90;99.90;;;;;;5099633;28;20193;-83
2022/04/17 07:30:18;;;;;;;11.52;6.70;;;8.60;99.90;;;;;;5080640;28;20127;-85
2022/04/17 07:32:48;;;;;;;10.95;6.82;;;8.70;99.90;;;;;;5097848;28;20044;-84
2022/04/17 07:35:15;;;;;;;11.27;6.80;;;8.80;99.90;;;;;;5080265;28;20040;-83
2022/04/17 07:37:46;;;;;;;9.18;6.50;;;8.90;99.90;;;;;;5100098;28;20044;-84
2022/04/17 07:40:17;;;;;;;9.82;5.95;;;9.20;99.90;;;;;;5098238;28;20052;-82
2022/04/17 07:42:44;;;;;;;9.55;6.55;;;9.20;99.90;;;;;;5080351;28;20536;-82
2022/04/17 07:45:11;;;;;;;8.52;6.00;;;9.30;99.90;;;;;;5099099;28;20475;-84
2022/04/17 07:47:36;;;;;;;9.57;6.07;;;9.40;99.90;;;;;;5097929;28;20043;-82
2022/04/17 07:50:03;;;;;;;10.80;6.75;;;9.40;99.90;;;;;;5098446;28;20051;-83
2022/04/17 07:52:28;;;;;;;9.60;5.72;;;9.50;99.90;;;;;;5098843;28;20048;-82
2022/04/17 07:54:54;;;;;;;9.50;5.80;;;9.70;99.90;;;;;;5096752;28;20533;-83
2022/04/17 07:57:20;;;;;;;9.43;4.78;;;9.90;99.90;;;;;;5098548;28;20036;-86
2022/04/17 07:59:45;;;;;;;6.75;5.07;;;10.00;99.90;;;;;;5098875;28;20048;-82
2022/04/17 08:02:28;;;;;;;7.00;4.78;;;10.70;99.90;;;;;;5097795;28;20048;-82
2022/04/17 08:04:54;;;;;;;9.02;5.47;;;10.30;99.90;;;;;;5079242;28;20047;-82
2022/04/17 08:07:20;;;;;;;7.82;4.85;;;10.80;99.90;;;;;;5099027;28;20058;-85
2022/04/17 08:09:46;;;;;;;7.90;4.82;;;10.60;99.90;;;;;;5080501;28;20040;-86
2022/04/17 08:12:12;;;;;;;8.20;5.03;;;10.50;99.90;;;;;;5097989;28;20032;-82
2022/04/17 08:14:37;;;;;;;7.18;4.57;;;10.60;99.90;;;;;;5101366;28;20112;-82
2022/04/17 08:17:03;;;;;;;7.68;4.95;;;10.70;99.90;;;;;;5080588;28;20399;-82
2022/04/17 08:19:31;;;;;;;8.93;4.70;;;10.70;99.90;;;;;;5098281;28;20048;-85
2022/04/17 08:22:00;;;;;;;6.57;4.70;;;10.90;99.90;;;;;;5097127;28;20080;-82
2022/04/17 08:24:26;;;;;;;7.45;4.50;;;11.00;99.90;;;;;;5098888;28;20376;-83
2022/04/17 08:26:54;;;;;;;8.70;4.88;;;11.10;99.90;;;;;;5098796;28;20173;-85
2022/04/17 08:29:20;;;;;;;9.23;5.07;;;11.20;99.90;;;;;;5097630;28;20048;-84
2022/04/17 08:31:45;;;;;;;8.25;4.35;;;11.30;99.90;;;;;;5098121;28;20077;-85
2022/04/17 08:34:11;;;;;;;7.28;4.72;;;11.40;99.90;;;;;;5097896;28;20483;-82
2022/04/17 08:36:37;;;;;;;9.40;4.38;;;11.50;99.90;;;;;;5097723;28;20036;-82
2022/04/17 08:39:02;;;;;;;13.02;5.00;;;11.50;99.90;;;;;;5096704;28;20039;-82
2022/04/17 08:41:32;;;;;;;6.70;4.20;;;11.70;99.90;;;;;;5097275;28;20544;-84
2022/04/17 08:43:58;;;;;;;7.45;4.72;;;11.70;99.90;;;;;;5103712;28;20048;-82
2022/04/17 08:46:24;;;;;;;6.82;4.28;;;11.80;99.90;;;;;;5102107;28;20050;-82
2022/04/17 08:48:51;;;;;;;7.88;4.13;;;12.10;99.90;;;;;;5096352;28;20391;-82
2022/04/17 08:51:20;;;;;;;8.38;4.55;;;12.00;99.90;;;;;;5098900;28;20074;-86
2022/04/17 08:53:49;;;;;;;6.45;4.50;;;12.10;99.90;;;;;;5101615;28;20040;-86
2022/04/17 08:56:15;;;;;;;8.88;4.78;;;12.10;99.90;;;;;;5100679;28;20495;-82
2022/04/17 08:58:40;;;;;;;6.85;4.60;;;12.80;99.90;;;;;;5098442;28;20123;-82
2022/04/17 09:01:06;;;;;;;7.45;5.07;;;12.60;99.90;;;;;;5100085;28;20071;-82
2022/04/17 09:03:32;;;;;;;7.45;4.50;;;12.20;99.90;;;;;;5103443;28;20059;-82
2022/04/17 09:05:58;;;;;;;8.15;4.93;;;12.20;99.90;;;;;;5103455;28;20044;-82
2022/04/17 09:08:23;;;;;;;8.88;4.75;;;12.30;99.90;;;;;;5098422;28;20047;-82
2022/04/17 09:10:57;;;;;;;7.15;4.72;;;12.60;99.90;;;;;;5096139;28;20146;-85
2022/04/17 09:13:33;;;;;;;7.97;5.00;;;12.50;99.90;;;;;;5094524;28;20055;-82
2022/04/17 09:16:03;;;;;;;6.82;4.55;;;12.70;99.90;;;;;;5096489;28;20040;-82
2022/04/17 09:18:31;;;;;;;7.28;4.88;;;12.80;99.50;;;;;;5094559;28;20083;-87
2022/04/17 09:20:57;;;;;;;6.20;4.60;;;13.10;99.60;;;;;;5095287;28;20077;-82
2022/04/17 09:23:43;;;;;;;8.23;4.65;;;13.00;99.90;;;;;;5095302;28;20050;-87
2022/04/17 09:26:09;;;;;;;;;;;13.50;99.60;;;;;;5095928;28;20189;-82
2022/04/17 09:28:37;;;;;;;7.45;4.63;;;13.40;99.30;;;;;;5094420;28;19969;-86
2022/04/17 09:31:10;;;;;;;6.15;4.40;;;13.30;99.90;;;;;;5094738;28;20044;-86
2022/04/17 09:33:40;;;;;;;6.07;3.92;;;13.40;99.90;;;;;;5094887;28;20040;-83
2022/04/17 09:36:06;;;;;;;7.38;4.45;;;13.50;98.20;;;;;;5093440;28;20036;-84
2022/04/17 09:38:35;;;;;;;6.93;4.63;;;13.70;98.80;;;;;;5094013;28;20122;-82
2022/04/17 09:41:19;;;;;;;8.05;4.20;;;13.90;98.90;;;;;;5094912;28;20499;-86
2022/04/17 09:43:47;;;;;;;5.05;3.58;;;13.80;96.40;;;;;;5094283;28;20126;-86
2022/04/17 09:46:14;;;;;;;6.60;3.75;;;13.90;96.20;;;;;;5095008;28;20422;-88
2022/04/17 09:48:41;;;;;;;7.13;3.97;;;13.90;94.60;;;;;;5097660;28;20072;-84
2022/04/17 09:51:24;;;;;;;6.32;3.90;;;13.90;94.70;;;;;;5095144;28;20119;-87
2022/04/17 09:53:57;;;;;;;6.57;4.05;;;13.90;93.60;;;;;;5095199;28;20123;-84
2022/04/17 09:56:37;;;;;;;5.85;4.28;;;14.00;93.20;;;;;;5094072;28;20036;-83
2022/04/17 09:59:20;;;;;;;7.13;4.10;;;14.00;93.50;;;;;;5093754;28;20494;-87
2022/04/17 10:01:54;;;;;;;5.22;3.80;;;14.20;92.80;;;;;;5095740;28;20048;-83
2022/04/17 10:04:22;;;;;;;5.35;3.65;;;14.30;92.40;;;;;;5094993;28;20444;-85
2022/04/17 10:06:53;;;;;;;5.18;3.80;;;14.40;93.20;;;;;;5093456;28;20094;-85
2022/04/17 10:09:19;;;;;;;5.75;3.88;;;14.50;92.20;;;;;;5093406;28;20540;-83
2022/04/17 10:11:46;;;;;;;5.43;3.75;;;14.70;92.70;;;;;;5099774;28;20040;-86
2022/04/17 10:14:12;;;;;;;5.90;3.75;;;14.70;91.70;;;;;;5093759;28;20054;-84
2022/04/17 10:16:43;;;;;;;6.40;3.97;;;14.70;92.20;;;;;;5093037;28;20130;-83
2022/04/17 10:19:16;;;;;;;6.25;3.90;;;14.80;90.10;;;;;;5093915;28;20074;-82
2022/04/17 10:21:42;;;;;;;6.38;3.95;;;14.80;91.30;;;;;;5094358;28;20185;-83
2022/04/17 10:24:13;;;;;;;6.85;3.83;;;15.20;92.10;;;;;;5092700;28;20099;-82
2022/04/17 10:26:47;;;;;;;6.40;4.20;;;15.20;91.20;;;;;;5094000;28;20044;-83
2022/04/17 10:29:25;;;;;;;7.25;4.13;;;15.20;87.70;;;;;;5093659;28;20040;-85
2022/04/17 10:32:08;;;;;;;6.25;3.40;;;15.30;87.20;;;;;;5092197;28;20055;-83
2022/04/17 10:34:53;;;;;;;6.25;3.63;;;15.50;87.40;;;;;;5092595;28;20052;-87
2022/04/17 10:37:44;;;;;;;7.43;3.35;;;15.60;85.30;;;;;;5092502;28;20036;-83
2022/04/17 10:40:10;;;;;;;5.10;3.70;;;15.70;80.90;;;;;;5075823;28;20048;-87
2022/04/17 10:42:56;;;;;;;5.50;3.40;;;15.90;86.10;;;;;;5093892;28;20048;-83
2022/04/17 10:45:22;;;;;;;4.43;3.20;;;16.00;79.30;;;;;;5092474;28;20098;-83
2022/04/17 10:48:10;;;;;;;5.07;3.47;;;16.10;82.20;;;;;;5092622;28;20036;-83
2022/04/17 10:50:42;;;;;;;6.47;3.83;;;16.40;80.90;;;;;;5093541;28;20051;-83
2022/04/17 10:53:24;;;;;;;6.05;3.58;;;16.40;80.80;;;;;;5093501;28;20043;-84
2022/04/17 10:56:03;;;;;;;5.90;4.15;;;16.60;78.80;;;;;;5093232;28;20055;-83
2022/04/17 10:58:44;;;;;;;5.45;4.15;;;16.70;80.00;;;;;;5092351;28;20126;-83
2022/04/17 11:01:11;;;;;;;6.40;3.88;;;16.60;79.30;;;;;;5096804;28;20499;-84
2022/04/17 11:03:38;;;;;;;5.65;3.65;;;16.80;81.50;;;;;;5095868;28;20066;-83
2022/04/17 11:06:33;;;;;;;6.18;3.70;;;16.80;79.50;;;;;;5097119;28;20089;-85
2022/04/17 11:09:12;;;;;;;4.73;3.50;;;16.80;73.60;;;;;;5079432;28;20055;-83
2022/04/17 11:11:45;;;;;;;5.85;3.92;;;16.80;74.60;;;;;;5097507;28;20440;-82
2022/04/17 11:14:11;;;;;;;5.40;3.83;;;16.90;71.40;;;;;;5108668;28;20066;-84
2022/04/17 11:17:08;;;;;;;6.30;3.58;;;16.90;76.60;;;;;;5103959;28;20052;-87
2022/04/17 11:19:40;;;;;;;5.38;3.50;;;17.20;73.90;;;;;;5096687;28;20048;-83
2022/04/17 11:22:08;;;;;;;5.28;3.15;;;17.30;75.60;;;;;;5095296;28;20043;-83
2022/04/17 11:24:56;;;;;;;4.13;3.15;;;17.40;71.20;;;;;;5095381;28;20048;-84
2022/04/17 11:27:45;;;;;;;5.93;3.28;;;17.30;66.20;;;;;;5096654;28;20073;-84
2022/04/17 11:30:13;;;;;;;5.20;3.42;;;17.30;66.00;;;;;;5081760;28;20040;-86
2022/04/17 11:32:51;;;;;;;4.30;3.17;;;17.30;68.00;;;;;;5079569;28;20126;-83
2022/04/17 11:35:22;;;;;;;5.75;3.38;;;17.30;66.80;;;;;;5078283;28;20044;-83
2022/04/17 11:38:01;;;;;;;4.35;3.03;;;17.50;69.10;;;;;;5095498;28;20059;-82
2022/04/17 11:40:28;;;;;;;5.03;3.28;;;17.60;65.50;;;;;;5097987;28;20104;-90
2022/04/17 11:42:55;;;;;;;6.32;3.38;;;17.80;64.20;;;;;;5088950;28;20052;-82
2022/04/17 11:45:26;;;;;;;4.70;3.03;;;18.00;67.10;;;;;;5105177;22;20115;-85
2022/04/17 11:47:54;;;;;;;5.43;3.33;;;17.90;66.60;;;;;;5074623;22;20048;-82
2022/04/17 11:50:28;;;;;;;5.00;2.90;;;18.10;66.70;;;;;;5086977;22;20049;-81
2022/04/17 11:52:58;;;;;;;4.35;2.60;;;18.20;61.60;;;;;;5072051;22;20052;-89
2022/04/17 11:55:29;;;;;;;5.30;3.05;;;18.20;64.00;;;;;;5080470;22;20044;-82
2022/04/17 11:57:55;;;;;;;4.32;3.13;;;18.20;61.40;;;;;;5088940;22;20059;-83
2022/04/17 12:00:23;;;;;;;4.60;2.85;;;18.40;64.70;;;;;;5099210;22;20071;-82
2022/04/17 12:02:57;;;;;;;6.47;3.25;;;18.30;61.80;;;;;;5086627;22;20107;-82
2022/04/17 12:05:27;;;;;;;5.20;3.17;;;18.30;60.70;;;;;;5096456;22;20063;31
2022/04/17 12:08:02;;;;;;;4.82;3.50;;;18.40;63.00;;;;;;5062866;22;20051;-90
2022/04/17 12:10:28;;;;;;;;;;;18.50;61.20;;;;;;5063632;22;20045;-83
2022/04/17 12:12:53;;;;;;;4.13;2.95;;;18.60;61.00;;;;;;5117476;22;19926;-83
2022/04/17 12:15:21;;;;;;;5.38;3.58;;;18.70;63.30;;;;;;5115974;28;20036;-84
2022/04/17 12:17:57;;;;;;;5.32;3.17;;;18.90;62.60;;;;;;5103710;22;20054;-89
2022/04/17 12:20:25;;;;;;;5.15;3.47;;;18.80;59.80;;;;;;5078880;28;20062;-83
2022/04/17 12:22:52;;;;;;;4.75;2.90;;;18.70;60.80;;;;;;5094949;28;20048;-83
2022/04/17 12:25:23;;;;;;;4.80;3.20;;;18.80;61.10;;;;;;5100406;28;20070;-82
2022/04/17 12:27:50;;;;;;;4.30;2.97;;;18.90;61.10;;;;;;5104219;22;20055;-88
2022/04/17 12:30:24;;;;;;;4.38;3.00;;;19.00;60.90;;;;;;5124131;28;20044;-83
2022/04/17 12:32:50;;;;;;;4.90;3.28;;;19.20;60.00;;;;;;5124195;28;20418;-88
2022/04/17 12:35:26;;;;;;;4.38;2.90;;;19.40;61.70;;;;;;5126908;28;20085;-83
2022/04/17 12:38:22;;;;;;;4.47;3.20;;;19.50;59.80;;;;;;5098661;28;20043;-82
2022/04/17 12:40:47;;;;;;;4.57;3.28;;;19.50;59.70;;;;;;5034161;28;20132;-82
2022/04/17 12:43:21;;;;;;;4.97;3.58;;;19.60;60.90;;;;;;5018517;28;20084;-86
2022/04/17 12:46:06;;;;;;;4.72;3.35;;;19.70;59.80;;;;;;5001839;28;20053;-82
2022/04/17 12:48:36;;;;;;;5.93;3.47;;;19.50;57.70;;;;;;5001503;28;20083;-83
2022/04/17 12:51:05;;;;;;;4.18;3.20;;;19.50;59.10;;;;;;5024483;28;20117;-85
2022/04/17 12:53:39;;;;;;;4.55;3.35;;;19.70;60.20;;;;;;5023695;28;20053;-83
2022/04/17 12:56:07;;;;;;;5.78;3.33;;;19.80;60.10;;;;;;5034587;28;20045;-86
2022/04/17 12:58:47;;;;;;;5.93;3.55;;;20.00;61.10;;;;;;5034057;28;20412;-85
2022/04/17 13:01:21;;;;;;;6.13;3.78;;;20.10;61.10;;;;;;5017436;28;20046;-87
2022/04/17 13:03:47;;;;;;;4.93;3.80;;;20.20;58.30;;;;;;5017438;28;20053;-83
2022/04/17 13:06:19;;;;;;;4.85;3.15;;;20.40;61.40;;;;;;5056511;22;20511;-83
2022/04/17 13:09:10;;;;;;;5.72;3.38;;;20.20;56.20;;;;;;5077856;28;20434;-86